Accueil
METAR-TAF:

METAR-TAF

Aéroports :

Base aérienne Cameri

Novare, Italie

latitude: 45-31N, longitude: 008-40E, altitude: 178 m

Observation

Le bulletin a été fait il y a 1 heure et 35 minutes, à 17:55 UTC
Vent 10 kt de nord/nord-est
Température 26°C
Humidité 28%
Pression 1008 hPa
Visibilité 10 km ou plus
pas de nuages en-dessous de 1500 mètres et pas de cumulonimbus.

METAR: LIMN 041755Z 02010KT CAVOK 26/06 Q1008 RMK FEW FEW080 VIS MIN 9999 BLU

Heure: 21:30 (19:30 UTC)

Prévision

Le bulletin a été fait il y a 2 heures et 30 minutes, à 17:00 UTC
Prévision valable du 04 à 18 UTC au 05 à 03 UTC
Vent 8 kt de nord
Visibilité 10 km ou plus
Quelques nuages à une hauteur de 6000 ft
Temporairement
du 04 à 18 UTC au 04 à 21 UTC
Vent 15 kt de nord/nord-est avec des rafales jusqu'à 25 kt

TAF: LIMN 041700Z 0418/0503 36008KT 9999 FEW060 TEMPO 0418/0421 03015G25KT

Observations et prévisions météorologiques de plus de 4000 aéroports (messages METAR et TAF).

Les stations disponibles sont représentées par des disques jaunes et rouges sur la carte.

Passer la souris dessus pour voir le nom de la station.

Cliquer dessus pour voir les observations et prévisions météorologiques.

Pour changer de carte: cliquez sur les boutons verts avec une croix noire pour zoomer, sur le bouton vert avec un tiret pour effectuer un zoom arrière, ou sur les flèches vertes pour les cartes adjacentes.


METAR-TAF: